createdAt,value
2023-02-02T00:02:02.731Z,100463.69
2023-02-02T00:04:34.853Z,100451.34
2023-02-02T00:07:02.907Z,100456.22
2023-02-02T00:09:31.355Z,100452.75
2023-02-02T00:11:58.895Z,100468.38
2023-02-02T00:14:25.606Z,100457.53
2023-02-02T00:16:56.224Z,100469.78
2023-02-02T00:19:30.331Z,100455.94
2023-02-02T00:21:57.442Z,100458.66
2023-02-02T00:24:24.277Z,100460.56
2023-02-02T00:26:56.156Z,100461.78
2023-02-02T00:29:25.038Z,100458.09
2023-02-02T00:31:52.116Z,100453.69
2023-02-02T00:34:19.139Z,100468.38
2023-02-02T00:36:47.376Z,100465.53
2023-02-02T00:39:20.790Z,100456.78
2023-02-02T00:41:48.179Z,100455.00
2023-02-02T00:44:33.691Z,100465.47
2023-02-02T00:47:00.493Z,100466.31
2023-02-02T00:49:27.275Z,100476.41
2023-02-02T00:51:53.969Z,100464.81
2023-02-02T00:54:20.817Z,100481.50
2023-02-02T00:56:47.758Z,100479.69
2023-02-02T00:59:14.417Z,100475.38
2023-02-02T01:01:41.143Z,100483.28
2023-02-02T01:04:08.010Z,100480.81
2023-02-02T01:06:35.092Z,100491.22
2023-02-02T01:09:01.950Z,100484.41
2023-02-02T01:11:28.724Z,100491.28
2023-02-02T01:13:55.365Z,100485.16
2023-02-02T01:16:25.262Z,100479.13
2023-02-02T01:18:52.575Z,100488.66
2023-02-02T01:21:19.415Z,100486.84
2023-02-02T01:23:46.206Z,100485.25
2023-02-02T01:26:16.127Z,100481.56
2023-02-02T01:28:42.913Z,100484.41
2023-02-02T01:31:18.201Z,100477.91
2023-02-02T01:33:46.234Z,100481.13
2023-02-02T01:36:15.525Z,100475.94
2023-02-02T01:38:43.136Z,100472.16
2023-02-02T01:41:13.931Z,100471.41
2023-02-02T01:43:44.120Z,100464.34
2023-02-02T01:46:25.417Z,100461.59
2023-02-02T01:49:03.266Z,100468.41
2023-02-02T01:51:35.477Z,100469.13
2023-02-02T01:54:03.272Z,100478.75
2023-02-02T01:56:34.433Z,100470.66
2023-02-02T01:59:01.433Z,100471.50
2023-02-02T02:01:28.156Z,100470.47
2023-02-02T02:03:55.703Z,100475.66
2023-02-02T02:06:25.718Z,100480.16
2023-02-02T02:09:00.260Z,100468.84
2023-02-02T02:11:27.518Z,100481.00
2023-02-02T02:14:15.058Z,100463.69
2023-02-02T02:17:00.247Z,100448.03
2023-02-02T02:19:36.484Z,100467.94
2023-02-02T02:22:32.730Z,100461.22
2023-02-02T02:25:41.837Z,100471.13
2023-02-02T02:28:19.396Z,100476.13
2023-02-02T02:31:11.171Z,100477.34
2023-02-02T02:34:00.222Z,100484.50
2023-02-02T02:36:50.090Z,100469.44
2023-02-02T02:39:23.437Z,100453.50
2023-02-02T02:41:53.869Z,100469.72
2023-02-02T02:44:22.229Z,100475.56
2023-02-02T02:46:49.691Z,100493.00
2023-02-02T02:49:17.553Z,100506.19
2023-02-02T02:51:52.202Z,100497.78
2023-02-02T02:54:34.632Z,100493.66
2023-02-02T02:57:32.625Z,100477.72
2023-02-02T03:00:14.266Z,100483.47
2023-02-02T03:02:49.230Z,100499.28
2023-02-02T03:05:47.049Z,100499.56
2023-02-02T03:08:40.761Z,100512.75
2023-02-02T03:11:10.772Z,100509.09
2023-02-02T03:13:37.540Z,100495.06
2023-02-02T03:16:04.558Z,100494.09
2023-02-02T03:18:33.023Z,100488.81
2023-02-02T03:20:59.968Z,100477.34
2023-02-02T03:23:26.746Z,100480.84
2023-02-02T03:25:54.275Z,100496.47
2023-02-02T03:28:23.486Z,100493.00
2023-02-02T03:30:51.434Z,100493.63
2023-02-02T03:33:18.704Z,100482.44
2023-02-02T03:35:46.089Z,100481.69
2023-02-02T03:38:12.977Z,100498.47
2023-02-02T03:40:40.066Z,100493.00
2023-02-02T03:43:06.798Z,100496.66
2023-02-02T03:45:35.479Z,100495.06
2023-02-02T03:48:05.849Z,100510.03
2023-02-02T03:50:33.229Z,100508.31
2023-02-02T03:53:00.266Z,100507.22
2023-02-02T03:55:27.054Z,100506.38
2023-02-02T03:57:53.770Z,100516.63
2023-02-02T04:00:21.237Z,100512.03
2023-02-02T04:02:47.925Z,100497.50
2023-02-02T04:05:14.744Z,100506.00
2023-02-02T04:07:41.449Z,100505.78
2023-02-02T04:10:08.861Z,100525.09
2023-02-02T04:12:35.522Z,100534.75
2023-02-02T04:15:02.280Z,100528.69
2023-02-02T04:17:28.989Z,100528.63
2023-02-02T04:19:58.333Z,100524.06
2023-02-02T04:22:25.711Z,100523.22
2023-02-02T04:24:52.534Z,100517.09
2023-02-02T04:27:19.918Z,100526.06
2023-02-02T04:29:46.688Z,100521.63
2023-02-02T04:32:18.324Z,100518.16
2023-02-02T04:34:45.242Z,100516.47
2023-02-02T04:37:12.027Z,100525.88
2023-02-02T04:39:38.756Z,100525.03
2023-02-02T04:42:05.461Z,100510.16
2023-02-02T04:44:32.191Z,100517.09
2023-02-02T04:46:59.220Z,100530.38
2023-02-02T04:49:25.939Z,100529.94
2023-02-02T04:51:52.678Z,100520.03
2023-02-02T04:54:19.458Z,100517.31
2023-02-02T04:56:46.098Z,100516.34
2023-02-02T04:59:12.839Z,100532.09
2023-02-02T05:01:39.592Z,100537.38
2023-02-02T05:04:06.467Z,100531.91
2023-02-02T05:06:33.218Z,100529.34
2023-02-02T05:09:01.147Z,100531.97
2023-02-02T05:11:27.981Z,100535.38
2023-02-02T05:13:55.251Z,100536.53
2023-02-02T05:16:23.282Z,100532.66
2023-02-02T05:18:51.416Z,100536.06
2023-02-02T05:21:18.380Z,100547.47
2023-02-02T05:23:45.087Z,100549.16
2023-02-02T05:26:15.636Z,100551.91
2023-02-02T05:28:42.878Z,100547.53
2023-02-02T05:31:09.979Z,100558.03
2023-02-02T05:33:37.131Z,100550.00
2023-02-02T05:36:04.384Z,100560.56
2023-02-02T05:38:31.324Z,100563.19
2023-02-02T05:40:58.010Z,100554.34
2023-02-02T05:43:29.142Z,100564.91
2023-02-02T05:45:55.959Z,100555.19
2023-02-02T05:48:22.777Z,100554.34
2023-02-02T05:51:12.502Z,100560.75
2023-02-02T05:53:39.172Z,100559.50
2023-02-02T05:56:06.002Z,100563.03
2023-02-02T05:58:32.913Z,100568.31
2023-02-02T06:00:59.608Z,100566.59
2023-02-02T06:03:26.416Z,100563.94
2023-02-02T06:05:53.185Z,100574.63
2023-02-02T06:08:19.853Z,100565.75
2023-02-02T06:10:46.577Z,100571.03
2023-02-02T06:13:13.249Z,100576.22
2023-02-02T06:15:42.143Z,100565.66
2023-02-02T06:18:09.564Z,100570.06
2023-02-02T06:20:36.523Z,100568.31
2023-02-02T06:23:05.062Z,100577.06
2023-02-02T06:25:31.768Z,100575.34
2023-02-02T06:27:59.481Z,100577.91
2023-02-02T06:30:26.780Z,100584.97
2023-02-02T06:32:53.813Z,100586.66
2023-02-02T06:35:20.547Z,100584.22
2023-02-02T06:37:47.267Z,100593.75
2023-02-02T06:40:13.882Z,100598.94
2023-02-02T06:42:40.930Z,100598.19
2023-02-02T06:45:08.165Z,100601.66
2023-02-02T06:47:34.898Z,100605.13
2023-02-02T06:50:01.615Z,100599.88
2023-02-02T06:52:28.339Z,100603.25
2023-02-02T06:54:55.261Z,100607.31
2023-02-02T06:57:22.025Z,100616.66
2023-02-02T06:59:48.742Z,100612.22
2023-02-02T07:02:15.593Z,100612.22
2023-02-02T07:04:42.414Z,100617.56
2023-02-02T07:07:09.054Z,100616.53
2023-02-02T07:09:35.876Z,100608.53
2023-02-02T07:12:02.640Z,100606.75
2023-02-02T07:14:29.330Z,100605.81
2023-02-02T07:16:56.075Z,100613.75
2023-02-02T07:19:22.752Z,100606.66
2023-02-02T07:21:49.499Z,100603.91
2023-02-02T07:24:16.130Z,100599.59
2023-02-02T07:26:42.882Z,100604.94
2023-02-02T07:29:13.105Z,100611.94
2023-02-02T07:31:40.442Z,100617.22
2023-02-02T07:34:07.139Z,100625.91
2023-02-02T07:36:33.974Z,100624.97
2023-02-02T07:39:03.863Z,100612.72
2023-02-02T07:41:31.195Z,100622.41
2023-02-02T07:43:57.926Z,100635.50
2023-02-02T07:46:24.659Z,100619.75
2023-02-02T07:48:56.945Z,100637.56
2023-02-02T07:51:24.648Z,100629.75
2023-02-02T07:53:53.433Z,100644.53
2023-02-02T07:56:22.954Z,100654.06
2023-02-02T07:58:52.177Z,100650.50
2023-02-02T08:01:20.675Z,100650.50
2023-02-02T08:03:47.480Z,100657.59
2023-02-02T08:06:25.711Z,100666.41
2023-02-02T08:08:52.697Z,100669.75
2023-02-02T08:11:20.795Z,100658.25
2023-02-02T08:13:52.341Z,100668.88
2023-02-02T08:16:19.712Z,100670.47
2023-02-02T08:18:46.883Z,100679.34
2023-02-02T08:21:13.840Z,100673.31
2023-02-02T08:23:41.583Z,100680.31
2023-02-02T08:26:17.903Z,100680.31
2023-02-02T08:28:46.876Z,100673.22
2023-02-02T08:31:17.633Z,100683.78
2023-02-02T08:33:44.361Z,100682.75
2023-02-02T08:36:13.127Z,100681.91
2023-02-02T08:38:39.876Z,100677.56
2023-02-02T08:41:08.190Z,100669.81
2023-02-02T08:43:35.648Z,100671.34
2023-02-02T08:46:05.577Z,100676.63
2023-02-02T08:48:34.032Z,100674.66
2023-02-02T08:51:01.008Z,100684.25
2023-02-02T08:53:27.973Z,100684.38
2023-02-02T08:56:02.604Z,100686.44
2023-02-02T08:58:29.454Z,100679.28
2023-02-02T09:01:23.942Z,100678.31
2023-02-02T09:03:58.780Z,100677.56
2023-02-02T09:06:31.047Z,100690.88
2023-02-02T09:08:57.713Z,100687.94
2023-02-02T09:11:24.899Z,100675.41
2023-02-02T09:13:55.839Z,100672.78
2023-02-02T09:16:23.432Z,100678.06
2023-02-02T09:18:50.253Z,100683.22
2023-02-02T09:21:18.404Z,100696.34
2023-02-02T09:23:46.561Z,100690.88
2023-02-02T09:26:27.224Z,100696.09
2023-02-02T09:28:59.078Z,100687.59
2023-02-02T09:31:26.166Z,100695.25
2023-02-02T09:33:53.093Z,100699.50
2023-02-02T09:36:21.744Z,100696.84
2023-02-02T09:38:49.685Z,100688.06
2023-02-02T09:41:54.561Z,100696.34
2023-02-02T09:44:36.296Z,100689.09
2023-02-02T09:47:20.513Z,100693.34
2023-02-02T09:49:53.782Z,100692.28
2023-02-02T09:52:35.315Z,100696.53
2023-02-02T09:55:12.357Z,100698.78
2023-02-02T09:57:47.305Z,100698.72
2023-02-02T10:00:28.085Z,100713.59
2023-02-02T10:03:01.880Z,100699.38
2023-02-02T10:05:36.782Z,100708.91
2023-02-02T10:08:07.767Z,100702.59
2023-02-02T10:10:40.204Z,100713.91
2023-02-02T10:13:16.209Z,100713.91
2023-02-02T10:15:52.493Z,100715.63
2023-02-02T10:18:38.043Z,100710.78
2023-02-02T10:21:08.957Z,100721.56
2023-02-02T10:23:41.259Z,100725.06
2023-02-02T10:26:19.034Z,100725.16
2023-02-02T10:29:12.034Z,100733.16
2023-02-02T10:31:41.766Z,100732.13
2023-02-02T10:34:15.729Z,100733.81
2023-02-02T10:37:05.143Z,100739.28
2023-02-02T10:39:55.037Z,100732.72
2023-02-02T10:43:11.149Z,100746.09
2023-02-02T10:45:39.291Z,100753.66
2023-02-02T10:48:14.867Z,100751.13
2023-02-02T10:50:44.358Z,100751.00
2023-02-02T10:53:14.116Z,100742.16
2023-02-02T10:55:56.840Z,100749.41
2023-02-02T10:58:30.388Z,100750.09
2023-02-02T11:00:58.880Z,100748.19
2023-02-02T11:03:28.507Z,100747.25
2023-02-02T11:06:15.816Z,100747.25
2023-02-02T11:08:47.529Z,100747.25
2023-02-02T11:11:23.833Z,100756.09
2023-02-02T11:13:58.221Z,100755.19
2023-02-02T11:16:38.826Z,100760.28
2023-02-02T11:19:18.118Z,100756.09
2023-02-02T11:21:48.840Z,100754.81
2023-02-02T11:24:23.801Z,100750.75
2023-02-02T11:26:59.988Z,100750.47
2023-02-02T11:29:32.624Z,100755.84
2023-02-02T11:32:35.405Z,100753.38
2023-02-02T11:35:08.228Z,100750.28
2023-02-02T11:37:39.018Z,100744.16
2023-02-02T11:40:28.502Z,100749.63
2023-02-02T11:43:01.080Z,100745.84
2023-02-02T11:45:37.539Z,100749.31
2023-02-02T11:48:13.118Z,100744.81
2023-02-02T11:50:47.918Z,100738.59
2023-02-02T11:53:33.204Z,100745.75
2023-02-02T11:56:04.589Z,100741.06
2023-02-02T11:58:46.696Z,100749.25
2023-02-02T12:01:27.180Z,100741.78
2023-02-02T12:03:59.660Z,100746.59
2023-02-02T12:06:34.011Z,100743.00
2023-02-02T12:09:12.143Z,100738.09
2023-02-02T12:11:59.270Z,100737.34
2023-02-02T12:14:47.724Z,100739.13
2023-02-02T12:17:26.496Z,100732.91
2023-02-02T12:20:09.963Z,100733.78
2023-02-02T12:22:56.711Z,100728.19
2023-02-02T12:25:32.577Z,100726.00
2023-02-02T12:28:33.086Z,100726.13
2023-02-02T12:31:15.480Z,100731.97
2023-02-02T12:34:17.671Z,100720.09
2023-02-02T12:37:10.708Z,100724.41
2023-02-02T12:40:03.199Z,100719.22
2023-02-02T12:42:41.987Z,100725.16
2023-02-02T12:45:17.074Z,100724.31
2023-02-02T12:48:10.919Z,100718.66
2023-02-02T12:51:06.303Z,100729.03
2023-02-02T12:54:35.173Z,100721.75
2023-02-02T12:57:22.107Z,100732.72
2023-02-02T13:00:00.500Z,100734.31
2023-02-02T13:02:44.675Z,100731.59
2023-02-02T13:05:23.416Z,100727.94
2023-02-02T13:07:53.258Z,100726.97
2023-02-02T13:10:34.260Z,100731.41
2023-02-02T13:13:17.774Z,100732.25
2023-02-02T13:15:45.786Z,100730.84
2023-02-02T13:18:23.101Z,100736.59
2023-02-02T13:20:54.340Z,100733.66
2023-02-02T13:23:28.783Z,100738.75
2023-02-02T13:26:05.173Z,100741.97
2023-02-02T13:28:52.960Z,100740.09
2023-02-02T13:31:25.633Z,100742.09
2023-02-02T13:34:07.641Z,100745.84
2023-02-02T13:36:37.477Z,100748.03
2023-02-02T13:39:15.210Z,100744.81
2023-02-02T13:41:42.083Z,100755.03
2023-02-02T13:44:22.000Z,100750.94
2023-02-02T13:47:00.228Z,100751.69
2023-02-02T13:49:34.551Z,100756.78
2023-02-02T13:52:14.889Z,100771.03
2023-02-02T13:54:59.938Z,100767.81
2023-02-02T13:57:32.368Z,100767.34
2023-02-02T14:00:13.834Z,100763.41
2023-02-02T14:02:50.436Z,100771.22
2023-02-02T14:05:22.121Z,100769.63
2023-02-02T14:07:49.506Z,100772.75
2023-02-02T14:10:25.639Z,100768.50
2023-02-02T14:12:52.911Z,100772.66
2023-02-02T14:15:19.926Z,100776.16
2023-02-02T14:17:47.180Z,100774.25
2023-02-02T14:20:48.831Z,100775.09
2023-02-02T14:23:51.083Z,100784.63
2023-02-02T14:26:21.763Z,100785.13
2023-02-02T14:28:51.247Z,100788.50
2023-02-02T14:31:27.081Z,100790.22
2023-02-02T14:34:28.641Z,100798.69
2023-02-02T14:36:59.627Z,100791.13
2023-02-02T14:39:30.077Z,100790.28
2023-02-02T14:42:36.812Z,100800.03
2023-02-02T14:45:28.342Z,100807.38
2023-02-02T14:47:59.693Z,100810.50
2023-02-02T14:50:45.871Z,100821.03
2023-02-02T14:53:13.124Z,100817.56
2023-02-02T14:55:55.260Z,100823.81
2023-02-02T14:58:41.135Z,100828.06
2023-02-02T15:01:25.992Z,100818.44
2023-02-02T15:04:15.659Z,100837.59
2023-02-02T15:06:43.064Z,100847.31
2023-02-02T15:09:28.318Z,100843.16
2023-02-02T15:12:08.744Z,100841.44
2023-02-02T15:14:35.392Z,100846.38
2023-02-02T15:17:05.916Z,100852.41
2023-02-02T15:19:37.907Z,100853.25
2023-02-02T15:22:44.180Z,100862.41
2023-02-02T15:25:21.715Z,100874.50
2023-02-02T15:28:19.101Z,100879.03
2023-02-02T15:30:49.397Z,100882.25
2023-02-02T15:33:41.305Z,100884.38
2023-02-02T15:36:16.431Z,100891.22
2023-02-02T15:38:43.787Z,100882.31
2023-02-02T15:41:21.666Z,100878.91
2023-02-02T15:43:48.491Z,100883.28
2023-02-02T15:46:24.529Z,100888.56
2023-02-02T15:49:35.777Z,100881.75
2023-02-02T15:52:11.485Z,100880.72
2023-02-02T15:54:38.258Z,100893.75
2023-02-02T15:57:42.253Z,100903.00
2023-02-02T16:00:20.815Z,100913.06
2023-02-02T16:02:50.808Z,100916.94
2023-02-02T16:05:39.973Z,100912.78
2023-02-02T16:08:25.237Z,100913.63
2023-02-02T16:11:02.129Z,100923.25
2023-02-02T16:13:30.050Z,100927.50
2023-02-02T16:15:59.102Z,100939.09
2023-02-02T16:18:25.788Z,100950.38
2023-02-02T16:20:53.542Z,100944.97
2023-02-02T16:23:29.100Z,100958.31
2023-02-02T16:25:58.824Z,100959.91
2023-02-02T16:28:25.623Z,100959.91
2023-02-02T16:30:52.886Z,100971.34
2023-02-02T16:33:41.567Z,100975.94
2023-02-02T16:36:25.953Z,100974.34
2023-02-02T16:38:54.221Z,100983.69
2023-02-02T16:44:37.986Z,100991.97
2023-02-02T16:47:08.847Z,100989.97
2023-02-02T16:49:35.945Z,100985.72
2023-02-02T16:52:13.304Z,100983.25
2023-02-02T16:54:45.146Z,100975.34
2023-02-02T16:57:27.463Z,100983.59
2023-02-02T16:59:56.791Z,100988.53
2023-02-02T17:02:30.082Z,100994.16
2023-02-02T17:05:21.066Z,100996.72
2023-02-02T17:07:50.571Z,100995.03
2023-02-02T17:10:17.227Z,101008.06
2023-02-02T17:12:45.345Z,101023.75
2023-02-02T17:15:17.891Z,101018.66
2023-02-02T17:17:47.725Z,101037.91
2023-02-02T17:20:15.654Z,101042.25
2023-02-02T17:22:44.994Z,101050.09
2023-02-02T17:25:19.815Z,101054.63
2023-02-02T17:27:46.688Z,101049.22
2023-02-02T17:30:16.366Z,101055.47
2023-02-02T17:32:43.062Z,101057.94
2023-02-02T17:35:19.163Z,101057.44
2023-02-02T17:37:46.076Z,101052.81
2023-02-02T17:40:16.767Z,101056.31
2023-02-02T17:42:44.965Z,101059.81
2023-02-02T17:45:35.717Z,101060.22
2023-02-02T17:48:03.529Z,101046.69
2023-02-02T17:50:31.555Z,101049.34
2023-02-02T17:52:58.648Z,101052.81
2023-02-02T17:55:34.624Z,101057.25
2023-02-02T17:58:01.482Z,101061.53
2023-02-02T18:00:31.170Z,101057.25
2023-02-02T18:03:41.666Z,101055.66
2023-02-02T18:06:10.771Z,101058.47
2023-02-02T18:08:37.564Z,101050.38
2023-02-02T18:11:04.395Z,101053.84
2023-02-02T18:13:31.219Z,101063.47
2023-02-02T18:15:59.527Z,101073.13
2023-02-02T18:18:27.413Z,101075.84
2023-02-02T18:20:54.221Z,101081.06
2023-02-02T18:23:21.512Z,101084.53
2023-02-02T18:25:48.351Z,101075.16
2023-02-02T18:28:17.316Z,101072.72
2023-02-02T18:30:45.607Z,101074.31
2023-02-02T18:33:13.619Z,101083.09
2023-02-02T18:35:44.429Z,101091.81
2023-02-02T18:38:11.327Z,101087.38
2023-02-02T18:40:38.304Z,101088.97
2023-02-02T18:43:05.037Z,101082.91
2023-02-02T18:45:31.761Z,101088.97
2023-02-02T18:47:58.532Z,101089.81
2023-02-02T18:50:25.344Z,101092.47
2023-02-02T18:52:52.058Z,101082.84
2023-02-02T18:55:18.790Z,101073.31
2023-02-02T18:57:45.522Z,101080.28
2023-02-02T19:00:12.795Z,101073.31
2023-02-02T19:02:39.587Z,101073.19
2023-02-02T19:05:25.891Z,101068.03
2023-02-02T19:07:55.810Z,101064.78
2023-02-02T19:10:24.437Z,101083.94
2023-02-02T19:12:59.204Z,101074.41
2023-02-02T19:15:26.784Z,101076.03
2023-02-02T19:17:55.226Z,101081.13
2023-02-02T19:20:29.556Z,101080.94
2023-02-02T19:23:11.422Z,101089.06
2023-02-02T19:25:40.860Z,101086.75
2023-02-02T19:28:28.238Z,101088.47
2023-02-02T19:30:57.274Z,101101.25
2023-02-02T19:33:29.923Z,101102.94
2023-02-02T19:35:56.629Z,101102.78
2023-02-02T19:38:26.144Z,101102.78
2023-02-02T19:40:52.902Z,101112.34
2023-02-02T19:43:25.064Z,101114.88
2023-02-02T19:45:52.548Z,101124.53
2023-02-02T19:48:23.490Z,101123.59
2023-02-02T19:50:50.297Z,101124.69
2023-02-02T19:53:23.219Z,101123.84
2023-02-02T19:55:51.033Z,101129.81
2023-02-02T19:58:20.639Z,101113.19
2023-02-02T20:00:48.399Z,101116.75
2023-02-02T20:03:42.817Z,101116.69
2023-02-02T20:06:17.096Z,101115.91
2023-02-02T20:08:43.965Z,101118.56
2023-02-02T20:11:23.390Z,101115.13
2023-02-02T20:13:50.755Z,101111.22
2023-02-02T20:16:22.764Z,101103.47
2023-02-02T20:18:57.129Z,101105.25
2023-02-02T20:21:32.475Z,101109.53
2023-02-02T20:23:59.227Z,101099.88
2023-02-02T20:26:38.402Z,101091.44
2023-02-02T20:29:20.137Z,101097.16
2023-02-02T20:31:47.940Z,101094.16
2023-02-02T20:34:24.673Z,101097.16
2023-02-02T20:36:53.819Z,101091.69
2023-02-02T20:39:32.774Z,101103.28
2023-02-02T20:41:59.821Z,101105.59
2023-02-02T20:44:28.031Z,101098.53
2023-02-02T20:46:55.928Z,101095.00
2023-02-02T20:49:25.570Z,101094.88
2023-02-02T20:51:56.624Z,101097.41
2023-02-02T20:54:24.748Z,101107.06
2023-02-02T20:56:52.223Z,101104.41
2023-02-02T20:59:20.151Z,101107.06
2023-02-02T21:01:47.504Z,101113.19
2023-02-02T21:04:14.188Z,101104.56
2023-02-02T21:06:41.087Z,101115.91
2023-02-02T21:09:09.215Z,101115.00
2023-02-02T21:11:35.907Z,101121.19
2023-02-02T21:14:02.790Z,101107.19
2023-02-02T21:16:29.570Z,101117.69
2023-02-02T21:18:57.118Z,101122.03
2023-02-02T21:21:24.325Z,101122.13
2023-02-02T21:23:51.633Z,101129.06
2023-02-02T21:26:20.548Z,101131.16
2023-02-02T21:28:47.487Z,101131.88
2023-02-02T21:31:16.715Z,101125.63
2023-02-02T21:33:44.678Z,101140.63
2023-02-02T21:36:14.429Z,101129.38
2023-02-02T21:38:41.143Z,101135.34
2023-02-02T21:41:16.961Z,101129.63
2023-02-02T21:43:43.774Z,101133.91
2023-02-02T21:46:35.549Z,101123.66
2023-02-02T21:49:02.698Z,101132.09
2023-02-02T21:51:34.940Z,101140.03
2023-02-02T21:54:16.237Z,101131.50
2023-02-02T21:56:43.279Z,101131.16
2023-02-02T21:59:16.329Z,101127.75
2023-02-02T22:01:43.534Z,101135.53
2023-02-02T22:04:29.085Z,101117.34
2023-02-02T22:07:12.971Z,101120.59
2023-02-02T22:09:41.773Z,101121.38
2023-02-02T22:12:20.841Z,101114.53
2023-02-02T22:14:48.976Z,101109.84
2023-02-02T22:17:22.927Z,101102.94
2023-02-02T22:20:15.602Z,101105.94
2023-02-02T22:22:47.512Z,101118.06
2023-02-02T22:25:17.288Z,101114.28
2023-02-02T22:27:54.898Z,101110.88
2023-02-02T22:30:37.419Z,101103.88
2023-02-02T22:33:05.723Z,101106.19
2023-02-02T22:35:33.410Z,101104.50
2023-02-02T22:38:00.635Z,101101.78
2023-02-02T22:40:27.726Z,101103.66
2023-02-02T22:42:57.051Z,101100.91
2023-02-02T22:45:23.747Z,101096.56
2023-02-02T22:47:51.055Z,101105.44
2023-02-02T22:50:19.964Z,101099.22
2023-02-02T22:52:46.945Z,101101.84
2023-02-02T22:55:14.201Z,101107.13
2023-02-02T22:57:41.010Z,101115.06
2023-02-02T23:00:13.860Z,101120.41
2023-02-02T23:02:41.203Z,101125.81
2023-02-02T23:05:10.648Z,101124.09
2023-02-02T23:07:37.985Z,101131.75
2023-02-02T23:10:05.798Z,101139.63
2023-02-02T23:12:32.986Z,101136.03
2023-02-02T23:14:59.712Z,101139.44
2023-02-02T23:17:26.483Z,101149.16
2023-02-02T23:19:53.138Z,101141.31
2023-02-02T23:22:19.829Z,101145.09
2023-02-02T23:24:46.513Z,101151.38
2023-02-02T23:27:13.276Z,101156.50
2023-02-02T23:29:39.933Z,101159.91
2023-02-02T23:32:07.066Z,101150.09
2023-02-02T23:34:33.950Z,101152.66
2023-02-02T23:37:00.705Z,101144.81
2023-02-02T23:39:27.446Z,101148.56
2023-02-02T23:41:54.200Z,101160.75
2023-02-02T23:44:21.004Z,101149.25
2023-02-02T23:46:47.998Z,101154.53
2023-02-02T23:49:14.667Z,101158.19
2023-02-02T23:51:41.533Z,101164.09
2023-02-02T23:54:10.121Z,101171.22
2023-02-02T23:56:37.240Z,101160.66
2023-02-02T23:59:03.982Z,101165.09
